Time;durP1;ratioP1;P1;durP2;ratioP2;P2;SDS_P1;SDS_P2;PMS_P1;PMS_P2;Temp;Humidity;BMP_temperature;BMP_pressure;BME280_temperature;BME280_humidity;BME280_pressure;Samples;Min_cycle;Max_cycle;Signal;HPM_P1;HPM_P2
2021/12/29 00:00:03;;;;;;;56.65;37.25;;;;;;;-144.47;100.00;61586.06;5031796;28;20472;-82
2021/12/29 00:02:38;;;;;;;58.58;36.65;;;;;;;-144.47;100.00;61586.06;5031203;28;20033;-82
2021/12/29 00:05:04;;;;;;;57.83;39.17;;;;;;;-144.47;100.00;61586.06;5031602;28;20076;-82
2021/12/29 00:07:30;;;;;;;58.33;36.83;;;;;;;-144.47;100.00;61586.06;5030905;28;20036;-83
2021/12/29 00:10:00;;;;;;;57.65;36.05;;;;;;;-144.47;100.00;61586.06;5047346;22;20041;-86
2021/12/29 00:12:26;;;;;;;62.40;37.90;;;;;;;-144.47;100.00;61586.06;5016612;28;20762;-86
2021/12/29 00:14:54;;;;;;;55.70;37.13;;;;;;;-144.47;100.00;61586.06;5017112;28;20421;-84
2021/12/29 00:17:20;;;;;;;58.10;36.63;;;;;;;-144.47;100.00;61586.06;5021154;28;20036;-83
2021/12/29 00:19:46;;;;;;;53.58;35.50;;;;;;;-144.47;100.00;61586.06;5023557;28;20501;-86
2021/12/29 00:22:13;;;;;;;53.42;35.63;;;;;;;-144.47;100.00;61586.06;5021707;28;20053;-85
2021/12/29 00:24:40;;;;;;;59.55;36.33;;;;;;;-144.47;100.00;61586.06;5022945;28;20026;-85
2021/12/29 00:27:06;;;;;;;57.80;37.40;;;;;;;-144.47;100.00;61586.06;5006758;28;20150;-88
2021/12/29 00:29:32;;;;;;;57.97;36.92;;;;;;;-144.47;100.00;61586.06;5007300;28;20402;-87
2021/12/29 00:32:27;;;;;;;54.17;35.78;;;;;;;-144.47;100.00;61586.06;5025268;28;20393;-86
2021/12/29 00:35:14;;;;;;;60.33;36.38;;;;;;;-144.47;100.00;61586.06;5025077;28;20088;-87
2021/12/29 00:38:12;;;;;;;56.17;36.33;;;;;;;-144.47;100.00;61586.06;4999415;28;20041;-88
2021/12/29 00:40:56;;;;;;;50.00;33.35;;;;;;;-144.47;100.00;61586.06;5033227;28;20830;-87
2021/12/29 00:43:40;;;;;;;48.92;32.92;;;;;;;-144.47;100.00;61586.06;5033658;28;20128;-87
2021/12/29 00:46:31;;;;;;;55.15;34.13;;;;;;;-144.47;100.00;61586.06;5011297;28;20041;-87
2021/12/29 00:48:58;;;;;;;54.45;36.00;;;;;;;-144.47;100.00;61586.06;5036901;28;20048;-86
2021/12/29 00:51:23;;;;;;;54.97;34.88;;;;;;;-144.47;100.00;61586.06;5044201;28;20362;-88
2021/12/29 00:53:49;;;;;;;56.22;37.25;;;;;;;-144.47;100.00;61586.06;5016105;28;20041;-86
2021/12/29 00:56:14;;;;;;;58.60;36.78;;;;;;;-144.47;100.00;61586.06;5031066;28;20029;-87
2021/12/29 00:58:40;;;;;;;53.78;36.00;;;;;;;-144.47;100.00;61586.06;5036147;28;20121;-86
2021/12/29 01:01:05;;;;;;;54.90;37.50;;;;;;;-144.47;100.00;61586.06;5025708;28;20501;-87
2021/12/29 01:03:31;;;;;;;56.25;36.72;;;;;;;-144.47;100.00;61586.06;5025218;28;20520;-86
2021/12/29 01:05:57;;;;;;;53.00;34.88;;;;;;;-144.47;100.00;61586.06;5024895;28;20636;-87
2021/12/29 01:08:22;;;;;;;53.78;34.88;;;;;;;-144.47;100.00;61586.06;5020984;28;20032;-86
2021/12/29 01:10:48;;;;;;;44.28;31.58;;;;;;;-144.47;100.00;61586.06;5023075;28;20529;-87
2021/12/29 01:13:19;;;;;;;50.45;34.38;;;;;;;-144.47;100.00;61586.06;5031836;28;20661;-86
2021/12/29 01:18:43;;;;;;;48.42;33.00;;;;;;;-144.47;100.00;61586.06;5019513;28;20410;-87
2021/12/29 01:21:09;;;;;;;49.67;34.45;;;;;;;-144.47;100.00;61586.06;5035733;28;20112;-88
2021/12/29 01:23:35;;;;;;;50.38;35.35;;;;;;;-144.47;100.00;61586.06;5036034;28;20117;-87
2021/12/29 01:26:00;;;;;;;56.58;37.53;;;;;;;-144.47;100.00;61586.06;5035958;28;20060;-87
2021/12/29 01:28:26;;;;;;;55.63;37.38;;;;;;;-144.47;100.00;61586.06;5018570;28;20029;-87
2021/12/29 01:30:51;;;;;;;53.22;36.42;;;;;;;-144.47;100.00;61586.06;5033991;28;20484;-87
2021/12/29 01:33:17;;;;;;;56.35;36.30;;;;;;;-144.47;100.00;61586.06;5018464;28;20350;-87
2021/12/29 01:35:42;;;;;;;59.92;35.72;;;;;;;-144.47;100.00;61586.06;5035335;28;20040;-87
2021/12/29 01:38:09;;;;;;;55.75;36.33;;;;;;;-144.47;100.00;61586.06;5018237;28;20107;-88
2021/12/29 01:40:37;;;;;;;50.95;36.40;;;;;;;-144.47;100.00;61586.06;5038162;28;20470;-87
2021/12/29 01:43:08;;;;;;;51.72;35.83;;;;;;;-144.47;100.00;61586.06;5018010;28;20478;-87
2021/12/29 01:45:34;;;;;;;51.47;34.35;;;;;;;-144.47;100.00;61586.06;5036501;28;20540;-88
2021/12/29 01:48:01;;;;;;;52.72;34.28;;;;;;;-144.47;100.00;61586.06;5050561;28;20041;-88
2021/12/29 01:50:26;;;;;;;50.47;34.97;;;;;;;-144.47;100.00;61586.06;5055108;28;20018;-87
2021/12/29 01:52:57;;;;;;;49.67;34.40;;;;;;;-144.47;100.00;61586.06;5044411;28;20382;-86
2021/12/29 01:55:27;;;;;;;50.65;34.17;;;;;;;-144.47;100.00;61586.06;5052325;28;20044;-85
2021/12/29 01:57:59;;;;;;;54.30;33.97;;;;;;;-144.47;100.00;61586.06;5025199;28;20021;-86
2021/12/29 02:00:30;;;;;;;51.08;34.47;;;;;;;-144.47;100.00;61586.06;5045888;28;20060;-85
2021/12/29 02:02:55;;;;;;;50.30;34.35;;;;;;;-144.47;100.00;61586.06;5044086;28;20042;-87
2021/12/29 02:05:22;;;;;;;50.25;34.13;;;;;;;-144.47;100.00;61586.06;5007804;28;20120;-86
2021/12/29 02:07:47;;;;;;;46.55;32.80;;;;;;;-144.47;100.00;61586.06;5028006;28;20064;-86
2021/12/29 02:10:15;;;;;;;50.22;34.75;;;;;;;-144.47;100.00;61586.06;5017635;28;20521;-87
2021/12/29 02:12:41;;;;;;;49.35;34.55;;;;;;;-144.47;100.00;61586.06;5037186;28;20029;-87
2021/12/29 02:15:08;;;;;;;50.22;33.58;;;;;;;-144.47;100.00;61586.06;5017502;28;20037;-87
2021/12/29 02:17:34;;;;;;;49.42;33.67;;;;;;;-144.47;100.00;61586.06;5034821;28;20509;-87
2021/12/29 02:20:02;;;;;;;46.72;34.42;;;;;;;-144.47;100.00;61586.06;5033743;28;20037;-87
2021/12/29 02:25:35;;;;;;;53.28;33.70;;;;;;;-144.47;100.00;61586.06;5034955;28;20077;-87
2021/12/29 02:27:54;;;;;;;49.80;33.55;;;;;;;-144.47;100.00;61586.06;5022020;28;20044;-84
2021/12/29 02:30:25;;;;;;;51.67;32.80;;;;;;;-144.47;100.00;61586.06;5008288;28;20129;-86
2021/12/29 02:32:55;;;;;;;52.13;34.42;;;;;;;-144.47;100.00;61586.06;5037136;28;20026;-87
2021/12/29 02:35:22;;;;;;;66.15;33.47;;;;;;;-144.47;100.00;61586.06;5017695;28;20034;-85
2021/12/29 02:37:48;;;;;;;74.43;32.45;;;;;;;-144.47;100.00;61586.06;5016541;28;20028;-86
2021/12/29 02:40:14;;;;;;;86.07;35.88;;;;;;;-144.47;100.00;61586.06;5018768;28;20052;-87
2021/12/29 02:42:42;;;;;;;64.68;34.08;;;;;;;-144.47;100.00;61586.06;5000778;28;20459;-87
2021/12/29 02:45:12;;;;;;;54.55;35.97;;;;;;;-144.47;100.00;61586.06;5016874;28;20025;-86
2021/12/29 02:47:38;;;;;;;53.75;36.10;;;;;;;-144.47;100.00;61586.06;5020794;28;20454;-87
2021/12/29 02:50:04;;;;;;;54.42;38.13;;;;;;;-144.47;100.00;61586.06;5034137;28;20124;-86
2021/12/29 02:52:30;;;;;;;61.47;39.42;;;;;;;-144.47;100.00;61586.06;5016173;28;20060;-87
2021/12/29 02:54:55;;;;;;;52.85;35.28;;;;;;;-144.47;100.00;61586.06;5033870;28;20400;-87
2021/12/29 02:57:21;;;;;;;63.13;36.97;;;;;;;-144.47;100.00;61586.06;5016187;28;20475;-86
2021/12/29 02:59:46;;;;;;;75.18;37.95;;;;;;;-144.47;100.00;61586.06;5033704;28;20026;-87
2021/12/29 03:02:12;;;;;;;51.13;33.75;;;;;;;-144.47;100.00;61586.06;5034305;28;20037;-87
2021/12/29 03:04:37;;;;;;;48.95;34.65;;;;;;;-144.47;100.00;61586.06;5032474;28;20049;-87
2021/12/29 03:07:04;;;;;;;64.97;34.97;;;;;;;-144.47;100.00;61586.06;5033877;28;20050;-85
2021/12/29 03:09:29;;;;;;;52.67;34.03;;;;;;;-144.47;100.00;61586.06;5033761;28;20514;-85
2021/12/29 03:11:55;;;;;;;52.55;36.10;;;;;;;-144.47;100.00;61586.06;5035923;28;20037;-86
2021/12/29 03:14:22;;;;;;;59.67;35.45;;;;;;;-144.47;100.00;61586.06;5034045;28;20040;-86
2021/12/29 03:16:48;;;;;;;61.70;34.20;;;;;;;-144.47;100.00;61586.06;5015682;28;20124;-86
2021/12/29 03:19:13;;;;;;;81.00;35.47;;;;;;;-144.47;100.00;61586.06;5016077;28;20145;-87
2021/12/29 03:21:40;;;;;;;107.32;34.97;;;;;;;-144.47;100.00;61586.06;5015706;28;20045;-87
2021/12/29 03:24:07;;;;;;;83.38;35.28;;;;;;;-144.47;100.00;61586.06;5015912;28;20107;-86
2021/12/29 03:26:32;;;;;;;60.13;35.83;;;;;;;-144.47;100.00;61586.06;5015611;28;20025;-87
2021/12/29 03:28:59;;;;;;;64.03;34.72;;;;;;;-144.47;100.00;61586.06;4999319;28;20022;-85
2021/12/29 03:31:27;;;;;;;73.25;33.53;;;;;;;-144.47;100.00;61586.06;5016025;28;20049;-88
2021/12/29 03:33:52;;;;;;;51.78;33.13;;;;;;;-144.47;100.00;61586.06;5015905;28;20026;-87
2021/12/29 03:36:19;;;;;;;58.60;32.10;;;;;;;-144.47;100.00;61586.06;5004241;28;20038;-87
2021/12/29 03:38:46;;;;;;;48.33;32.88;;;;;;;-144.47;100.00;61586.06;5024303;28;20494;-86
2021/12/29 03:41:15;;;;;;;53.78;34.42;;;;;;;-144.47;100.00;61586.06;5027535;28;20189;-86
2021/12/29 03:43:42;;;;;;;64.88;34.90;;;;;;;-144.47;100.00;61586.06;5015285;28;20094;-86
2021/12/29 03:46:08;;;;;;;50.45;34.20;;;;;;;-144.47;100.00;61586.06;5033529;28;20077;-87
2021/12/29 03:48:36;;;;;;;52.08;36.30;;;;;;;-144.47;100.00;61586.06;5015823;28;20437;-87
2021/12/29 03:51:04;;;;;;;101.65;36.55;;;;;;;-144.47;100.00;61586.06;5033521;28;20080;-86
2021/12/29 03:53:29;;;;;;;52.95;35.90;;;;;;;-144.47;100.00;61586.06;5033590;28;20112;-86
2021/12/29 03:55:56;;;;;;;66.53;35.63;;;;;;;-144.47;100.00;61586.06;5033065;28;20153;-86
2021/12/29 03:58:23;;;;;;;205.20;39.03;;;;;;;-144.47;100.00;61586.06;5034123;28;20026;-85
2021/12/29 04:00:51;;;;;;;59.80;35.53;;;;;;;-144.47;100.00;61586.06;5023946;28;20040;-86
2021/12/29 04:03:16;;;;;;;118.40;37.58;;;;;;;-144.47;100.00;61586.06;5034181;28;20112;-86
2021/12/29 04:05:42;;;;;;;94.75;35.72;;;;;;;-144.47;100.00;61586.06;5033850;28;20065;-87
2021/12/29 04:08:09;;;;;;;69.05;34.95;;;;;;;-144.47;100.00;61586.06;5034458;28;20468;-86
2021/12/29 04:10:34;;;;;;;58.45;35.35;;;;;;;-144.47;100.00;61586.06;5037017;28;20064;-86
2021/12/29 04:13:01;;;;;;;51.17;35.50;;;;;;;-144.47;100.00;61586.06;5033874;28;20362;-87
2021/12/29 04:15:27;;;;;;;68.25;35.83;;;;;;;-144.47;100.00;61586.06;5017916;28;20033;-86
2021/12/29 04:17:58;;;;;;;83.70;34.63;;;;;;;-144.47;100.00;61586.06;5036692;28;20442;-86
2021/12/29 04:23:11;;;;;;;96.30;33.70;;;;;;;-144.47;100.00;61586.06;5046549;28;20034;-86
2021/12/29 04:25:38;;;;;;;52.78;35.75;;;;;;;-144.47;100.00;61586.06;5027541;28;20009;-86
2021/12/29 04:28:08;;;;;;;129.38;37.10;;;;;;;-144.47;100.00;61586.06;5027886;28;20057;-87
2021/12/29 04:30:35;;;;;;;52.50;35.53;;;;;;;-144.47;100.00;61586.06;5044746;28;20042;-88
2021/12/29 04:33:00;;;;;;;123.43;40.85;;;;;;;-144.47;100.00;61586.06;5058652;28;20070;-86
2021/12/29 04:35:27;;;;;;;108.60;37.53;;;;;;;-144.47;100.00;61586.06;5056306;28;20021;-87
2021/12/29 04:37:53;;;;;;;79.30;39.63;;;;;;;-144.47;100.00;61586.06;5038423;28;20029;-87
2021/12/29 04:40:19;;;;;;;94.20;39.58;;;;;;;-144.47;100.00;61586.06;5057909;28;20017;-87
2021/12/29 04:42:44;;;;;;;79.43;42.88;;;;;;;-144.47;100.00;61586.06;5074041;28;20029;-87
2021/12/29 04:45:11;;;;;;;86.40;38.85;;;;;;;-144.47;100.00;61586.06;5058759;28;20072;-87
2021/12/29 04:47:40;;;;;;;119.53;39.67;;;;;;;-144.47;100.00;61586.06;5059870;28;20036;-86
2021/12/29 04:50:18;;;;;;;65.68;39.65;;;;;;;-144.47;100.00;61586.06;5056240;28;20075;-86
2021/12/29 04:52:44;;;;;;;75.57;39.10;;;;;;;-144.47;100.00;61586.06;5019775;28;20041;-88
2021/12/29 04:55:10;;;;;;;108.30;37.95;;;;;;;-144.47;100.00;61586.06;5035707;28;20056;-87
2021/12/29 04:57:35;;;;;;;63.75;37.97;;;;;;;-144.47;100.00;61586.06;5033832;28;20454;-86
2021/12/29 05:00:01;;;;;;;61.90;38.17;;;;;;;-144.47;100.00;61586.06;5034825;28;20414;-86
2021/12/29 05:02:27;;;;;;;146.32;37.10;;;;;;;-144.47;100.00;61586.06;5050761;28;20032;-87
2021/12/29 05:04:59;;;;;;;177.77;38.80;;;;;;;-144.47;100.00;61586.06;5055511;28;20017;-86
2021/12/29 05:10:10;;;;;;;86.30;38.17;;;;;;;-144.47;100.00;61586.06;5020379;28;20399;-86
2021/12/29 05:12:35;;;;;;;65.38;39.90;;;;;;;-144.47;100.00;61586.06;5037673;28;20038;-87
2021/12/29 05:15:04;;;;;;;63.92;38.90;;;;;;;-144.47;100.00;61586.06;5034488;28;20029;-85
2021/12/29 05:17:29;;;;;;;68.40;37.42;;;;;;;-144.47;100.00;61586.06;5016382;28;20025;-88
2021/12/29 05:19:55;;;;;;;62.88;38.65;;;;;;;-144.47;100.00;61586.06;5038453;28;20056;-87
2021/12/29 05:22:20;;;;;;;63.78;36.50;;;;;;;-144.47;100.00;61586.06;5022625;28;20025;-86
2021/12/29 05:24:46;;;;;;;91.05;37.63;;;;;;;-144.47;100.00;61586.06;5042268;28;20457;-87
2021/12/29 05:27:11;;;;;;;65.05;35.72;;;;;;;-144.47;100.00;61586.06;5022873;28;20041;-87
2021/12/29 05:29:38;;;;;;;72.75;35.65;;;;;;;-144.47;100.00;61586.06;5023402;28;20037;-87
2021/12/29 05:32:04;;;;;;;54.53;35.67;;;;;;;-144.47;100.00;61586.06;5040543;28;20482;-87
2021/12/29 05:34:29;;;;;;;59.30;34.85;;;;;;;-144.47;100.00;61586.06;5043272;28;20034;-86
2021/12/29 05:36:55;;;;;;;56.72;35.90;;;;;;;-144.47;100.00;61586.06;5042187;28;20095;-86
2021/12/29 05:39:20;;;;;;;93.70;35.33;;;;;;;-144.47;100.00;61586.06;5023733;28;20033;-86
2021/12/29 05:41:46;;;;;;;57.25;36.42;;;;;;;-144.47;100.00;61586.06;5042830;28;20036;-86
2021/12/29 05:44:11;;;;;;;54.53;35.97;;;;;;;-144.47;100.00;61586.06;5042433;28;20040;-87
2021/12/29 05:46:36;;;;;;;57.67;33.90;;;;;;;-144.47;100.00;61586.06;5023194;28;20037;-86
2021/12/29 05:49:02;;;;;;;64.03;34.55;;;;;;;-144.47;100.00;61586.06;5041907;28;20038;-89
2021/12/29 05:51:27;;;;;;;76.72;33.22;;;;;;;-144.47;100.00;61586.06;5024586;28;20022;-87
2021/12/29 05:53:53;;;;;;;74.55;34.60;;;;;;;-144.47;100.00;61586.06;5044421;28;20139;-87
2021/12/29 05:56:18;;;;;;;56.22;35.22;;;;;;;-144.47;100.00;61586.06;5038797;28;20038;-88
2021/12/29 05:58:44;;;;;;;66.90;36.85;;;;;;;-144.47;100.00;61586.06;5028778;28;20029;-87
2021/12/29 06:01:10;;;;;;;57.85;33.60;;;;;;;-144.47;100.00;61586.06;5051197;28;20160;-87
2021/12/29 06:03:37;;;;;;;64.43;36.15;;;;;;;-144.47;100.00;61586.06;5054945;28;20061;-88
2021/12/29 06:06:03;;;;;;;61.88;35.33;;;;;;;-144.47;100.00;61586.06;5059407;28;20088;-85
2021/12/29 06:08:29;;;;;;;52.05;36.60;;;;;;;-144.47;100.00;61586.06;5060109;28;20021;-86
2021/12/29 06:10:55;;;;;;;75.45;36.80;;;;;;;-144.47;100.00;61586.06;5058722;28;20096;-86
2021/12/29 06:13:20;;;;;;;62.78;34.60;;;;;;;-144.47;100.00;61586.06;5042025;28;20083;-86
2021/12/29 06:15:46;;;;;;;66.38;34.42;;;;;;;-144.47;100.00;61586.06;5059109;28;20053;-86
2021/12/29 06:18:12;;;;;;;58.05;34.90;;;;;;;-144.47;100.00;61586.06;5041338;28;20048;-85
2021/12/29 06:20:38;;;;;;;64.28;34.33;;;;;;;-144.47;100.00;61586.06;5055765;28;20112;-86
2021/12/29 06:23:06;;;;;;;50.50;34.25;;;;;;;-144.47;100.00;61586.06;5037927;28;20033;-87
2021/12/29 06:25:32;;;;;;;49.67;34.40;;;;;;;-144.47;100.00;61586.06;5055308;28;20033;-86
2021/12/29 06:28:01;;;;;;;53.17;33.45;;;;;;;-144.47;100.00;61586.06;5044587;28;20033;-87
2021/12/29 06:30:26;;;;;;;51.35;33.88;;;;;;;-144.47;100.00;61586.06;5038362;28;20025;-86
2021/12/29 06:32:52;;;;;;;53.00;34.92;;;;;;;-144.47;100.00;61586.06;5036893;28;20091;-85
2021/12/29 06:35:18;;;;;;;54.38;34.90;;;;;;;-144.47;100.00;61586.06;5033055;28;20026;-86
2021/12/29 06:37:44;;;;;;;57.72;34.55;;;;;;;-144.47;100.00;61586.06;5017026;28;20038;-86
2021/12/29 06:40:11;;;;;;;53.90;34.67;;;;;;;-144.47;100.00;61586.06;5034664;28;20108;-86
2021/12/29 06:42:36;;;;;;;57.60;34.00;;;;;;;-144.47;100.00;61586.06;5036279;28;20029;-87
2021/12/29 06:45:03;;;;;;;50.67;33.65;;;;;;;-144.47;100.00;61586.06;5034431;28;20063;-85
2021/12/29 06:47:29;;;;;;;59.33;32.45;;;;;;;-144.47;100.00;61586.06;5033400;28;20048;-85
2021/12/29 06:49:54;;;;;;;69.32;33.20;;;;;;;-144.47;100.00;61586.06;5033225;28;20029;-87
2021/12/29 06:52:20;;;;;;;51.95;34.90;;;;;;;-144.47;100.00;61586.06;5033725;28;20091;-87
2021/12/29 06:54:46;;;;;;;65.85;35.75;;;;;;;-144.47;100.00;61586.06;5033377;28;20033;-87
2021/12/29 06:57:12;;;;;;;55.95;35.60;;;;;;;-144.47;100.00;61586.06;5033436;28;20088;-87
2021/12/29 06:59:38;;;;;;;54.38;34.25;;;;;;;-144.47;100.00;61586.06;5033512;28;20057;-87
2021/12/29 07:02:04;;;;;;;57.42;37.28;;;;;;;-144.47;100.00;61586.06;5016079;28;20107;-85
2021/12/29 07:04:30;;;;;;;55.10;35.88;;;;;;;-144.47;100.00;61586.06;5033568;28;20490;-87
2021/12/29 07:06:56;;;;;;;58.88;34.50;;;;;;;-144.47;100.00;61586.06;5033195;28;20033;-86
2021/12/29 07:09:21;;;;;;;60.38;33.35;;;;;;;-144.47;100.00;61586.06;5034346;28;20036;-87
2021/12/29 07:11:48;;;;;;;55.35;33.83;;;;;;;-144.47;100.00;61586.06;5035426;28;20043;-86
2021/12/29 07:14:14;;;;;;;57.13;35.63;;;;;;;-144.47;100.00;61586.06;5032987;28;20029;-86
2021/12/29 07:16:43;;;;;;;60.10;35.60;;;;;;;-144.47;100.00;61586.06;5032396;28;20033;-87
2021/12/29 07:19:09;;;;;;;55.22;36.60;;;;;;;-144.47;100.00;61586.06;5032970;28;20477;-87
2021/12/29 07:21:34;;;;;;;67.28;36.08;;;;;;;-144.47;100.00;61586.06;5032399;28;20038;-87
2021/12/29 07:24:00;;;;;;;55.00;35.33;;;;;;;-144.47;100.00;61586.06;5014854;28;20044;-86
2021/12/29 07:26:26;;;;;;;62.28;36.65;;;;;;;-144.47;100.00;61586.06;5032344;28;20121;-86
2021/12/29 07:28:52;;;;;;;56.88;36.88;;;;;;;-144.47;100.00;61586.06;5033379;28;20030;-86
2021/12/29 07:31:19;;;;;;;56.70;35.97;;;;;;;-144.47;100.00;61586.06;5032745;28;20033;-87
2021/12/29 07:33:47;;;;;;;65.05;35.08;;;;;;;-144.47;100.00;61586.06;5022679;28;20478;-86
2021/12/29 07:36:13;;;;;;;74.65;34.70;;;;;;;-144.47;100.00;61586.06;5014831;28;20033;-87
2021/12/29 07:38:40;;;;;;;75.55;31.98;;;;;;;-144.47;100.00;61586.06;5014226;28;20025;-87
2021/12/29 07:41:06;;;;;;;59.75;33.38;;;;;;;-144.47;100.00;61586.06;5035362;28;20112;-86
2021/12/29 07:43:35;;;;;;;59.85;34.15;;;;;;;-144.47;100.00;61586.06;5032196;28;20029;-86
2021/12/29 07:46:01;;;;;;;55.08;33.58;;;;;;;-144.47;100.00;61586.06;5031018;28;20410;-86
2021/12/29 07:48:29;;;;;;;65.57;32.03;;;;;;;-144.47;100.00;61586.06;5032231;28;20118;-85
2021/12/29 07:50:55;;;;;;;72.60;31.95;;;;;;;-144.47;100.00;61586.06;5014442;28;20402;-85
2021/12/29 07:53:21;;;;;;;57.28;34.33;;;;;;;-144.47;100.00;61586.06;5014794;28;20026;-87
2021/12/29 07:55:47;;;;;;;71.82;38.53;;;;;;;-144.47;100.00;61586.06;5032197;28;20029;-87
2021/12/29 07:58:13;;;;;;;62.67;39.05;;;;;;;-144.47;100.00;61586.06;5032159;28;20073;-85
2021/12/29 08:00:40;;;;;;;59.15;37.65;;;;;;;-144.47;100.00;61586.06;5009483;28;20022;-86
2021/12/29 08:03:06;;;;;;;58.35;38.35;;;;;;;-144.47;100.00;61586.06;5031612;28;20037;-87
2021/12/29 08:05:31;;;;;;;60.28;39.40;;;;;;;-144.47;100.00;61586.06;5032258;28;20025;-88
2021/12/29 08:07:57;;;;;;;63.55;41.03;;;;;;;-144.47;100.00;61586.06;5031842;28;20033;-85
2021/12/29 08:10:23;;;;;;;58.38;39.35;;;;;;;-144.47;100.00;61586.06;5014446;28;20037;-86
2021/12/29 08:12:48;;;;;;;62.50;40.58;;;;;;;-144.47;100.00;61586.06;5022119;28;20057;-87
2021/12/29 08:15:14;;;;;;;57.50;38.20;;;;;;;-144.47;100.00;61586.06;5032282;28;20033;-86
2021/12/29 08:17:40;;;;;;;57.72;38.45;;;;;;;-144.47;100.00;61586.06;5031791;28;20065;-86
2021/12/29 08:20:07;;;;;;;54.08;36.03;;;;;;;-144.47;100.00;61586.06;5014167;28;20067;-85
2021/12/29 08:22:34;;;;;;;54.03;35.88;;;;;;;-144.47;100.00;61586.06;5032153;28;20391;-86
2021/12/29 08:25:00;;;;;;;50.85;36.60;;;;;;;-144.47;100.00;61586.06;5032013;28;20029;-87
2021/12/29 08:27:26;;;;;;;51.72;35.03;;;;;;;-144.47;100.00;61586.06;5031470;28;20079;-86
2021/12/29 08:29:52;;;;;;;53.45;36.78;;;;;;;-144.47;100.00;61586.06;5033847;28;20068;-87
2021/12/29 08:32:17;;;;;;;57.35;37.75;;;;;;;-144.47;100.00;61586.06;5033292;28;20109;-87
2021/12/29 08:34:43;;;;;;;51.75;36.30;;;;;;;-144.47;100.00;61586.06;5032817;28;20079;-86
2021/12/29 08:37:09;;;;;;;53.42;36.50;;;;;;;-144.47;100.00;61586.06;5033110;28;20053;-86
2021/12/29 08:39:34;;;;;;;51.17;37.33;;;;;;;-144.47;100.00;61586.06;5033617;28;20040;-86
2021/12/29 08:42:00;;;;;;;53.70;37.22;;;;;;;-144.47;100.00;61586.06;5032786;28;20840;-86
2021/12/29 08:44:25;;;;;;;51.42;36.00;;;;;;;-144.47;100.00;61586.06;5015326;28;20057;-87
2021/12/29 08:46:51;;;;;;;51.42;35.95;;;;;;;-144.47;100.00;61586.06;5034465;28;20038;-85
2021/12/29 08:49:16;;;;;;;52.10;36.63;;;;;;;-144.47;100.00;61586.06;5017921;28;20057;-84
2021/12/29 08:51:42;;;;;;;54.88;37.63;;;;;;;-144.47;100.00;61586.06;5033212;28;20435;-86
2021/12/29 08:54:09;;;;;;;54.90;38.88;;;;;;;-144.47;100.00;61586.06;5015690;28;20044;-87
2021/12/29 08:56:35;;;;;;;53.72;37.95;;;;;;;-144.47;100.00;61586.06;5015326;28;20120;-84
2021/12/29 08:59:01;;;;;;;57.47;39.33;;;;;;;-144.47;100.00;61586.06;5014680;28;20093;-86
2021/12/29 09:01:27;;;;;;;57.10;38.63;;;;;;;-144.47;100.00;61586.06;5035625;28;20029;-86
2021/12/29 09:03:53;;;;;;;52.20;38.40;;;;;;;-144.47;100.00;61586.06;5033468;28;20477;-87
2021/12/29 09:06:19;;;;;;;55.95;37.60;;;;;;;-144.47;100.00;61586.06;5034791;28;20081;-86
2021/12/29 09:08:45;;;;;;;50.95;37.05;;;;;;;-144.47;100.00;61586.06;4999444;28;20140;-84
2021/12/29 09:11:11;;;;;;;53.22;37.70;;;;;;;-144.47;100.00;61586.06;5009572;28;20367;-85
2021/12/29 09:13:37;;;;;;;54.10;37.88;;;;;;;-144.47;100.00;61586.06;5025681;28;20009;-84
2021/12/29 09:16:04;;;;;;;52.22;38.05;;;;;;;-144.47;100.00;61586.06;5032650;28;20038;-83
2021/12/29 09:18:32;;;;;;;58.25;39.50;;;;;;;-144.47;100.00;61586.06;5025654;28;20030;-84
2021/12/29 09:21:05;;;;;;;56.78;39.78;;;;;;;-144.47;100.00;61586.06;5016424;28;20030;-83
2021/12/29 09:23:31;;;;;;;51.97;38.20;;;;;;;-144.47;100.00;61586.06;5015458;28;20084;-85
2021/12/29 09:25:57;;;;;;;57.72;40.33;;;;;;;-144.47;100.00;61586.06;5014244;28;20030;-84
2021/12/29 09:28:22;;;;;;;55.35;38.92;;;;;;;-144.47;100.00;61586.06;5013187;28;20083;-84
2021/12/29 09:30:50;;;;;;;55.80;38.05;;;;;;;-144.47;100.00;61586.06;5016042;28;20109;-84
2021/12/29 09:33:17;;;;;;;52.08;36.70;;;;;;;-144.47;100.00;61586.06;5012879;28;20022;-84
2021/12/29 09:35:46;;;;;;;50.42;36.63;;;;;;;-144.47;100.00;61586.06;5011377;28;20033;-84
2021/12/29 09:38:13;;;;;;;48.15;35.47;;;;;;;-144.47;100.00;61586.06;5011279;28;20049;-82
2021/12/29 09:40:39;;;;;;;50.72;35.88;;;;;;;-144.47;100.00;61586.06;5014930;28;20045;-83
2021/12/29 09:43:08;;;;;;;48.78;36.60;;;;;;;-144.47;100.00;61586.06;5016027;28;20398;-84
2021/12/29 09:45:36;;;;;;;52.53;37.05;;;;;;;-144.47;100.00;61586.06;5016489;28;20034;-84
2021/12/29 09:48:01;;;;;;;46.42;35.22;;;;;;;-144.47;100.00;61586.06;5015802;28;20073;-83
2021/12/29 09:50:28;;;;;;;45.97;35.63;;;;;;;-144.47;100.00;61586.06;5015381;28;20488;-84
2021/12/29 09:52:55;;;;;;;50.95;36.20;;;;;;;-144.47;100.00;61586.06;5015300;28;20042;-83
2021/12/29 09:55:22;;;;;;;50.22;36.35;;;;;;;-144.47;100.00;61586.06;5011762;28;20025;-83
2021/12/29 09:57:50;;;;;;;47.00;36.78;;;;;;;-144.47;100.00;61586.06;5019608;28;20026;-84
2021/12/29 10:00:24;;;;;;;51.25;37.03;;;;;;;-144.47;100.00;61586.06;5026226;28;20026;-83
2021/12/29 10:02:50;;;;;;;51.65;36.17;;;;;;;-144.47;100.00;61586.06;5014217;28;20367;-83
2021/12/29 10:05:15;;;;;;;46.00;36.20;;;;;;;-144.47;100.00;61586.06;5014384;28;20037;-83
2021/12/29 10:07:41;;;;;;;50.40;37.00;;;;;;;-144.47;100.00;61586.06;4988407;28;20046;-84
2021/12/29 10:10:20;;;;;;;51.20;37.13;;;;;;;-144.47;100.00;61586.06;5005679;28;20104;-84
2021/12/29 10:12:47;;;;;;;49.20;36.08;;;;;;;-144.47;100.00;61586.06;5021034;28;20440;-84
2021/12/29 10:15:13;;;;;;;44.90;34.92;;;;;;;-144.47;100.00;61586.06;5024225;28;20044;-84
2021/12/29 10:17:39;;;;;;;51.20;36.92;;;;;;;-144.47;100.00;61586.06;5007377;28;20069;-83
2021/12/29 10:20:08;;;;;;;51.30;37.38;;;;;;;-144.47;100.00;61586.06;5024874;28;20416;-83
2021/12/29 10:22:34;;;;;;;50.25;35.88;;;;;;;-144.47;100.00;61586.06;5024303;28;20474;-83
2021/12/29 10:25:02;;;;;;;47.05;35.55;;;;;;;-144.47;100.00;61586.06;5024030;28;20052;-84
2021/12/29 10:27:31;;;;;;;49.63;36.15;;;;;;;-144.47;100.00;61586.06;5023500;28;20104;-83
2021/12/29 10:29:56;;;;;;;51.25;35.70;;;;;;;-144.47;100.00;61586.06;5029266;28;20050;-84
2021/12/29 10:32:23;;;;;;;51.65;37.72;;;;;;;-144.47;100.00;61586.06;5034282;28;20112;-84
2021/12/29 10:34:54;;;;;;;49.72;34.83;;;;;;;-144.47;100.00;61586.06;5034052;28;20041;-83
2021/12/29 10:37:23;;;;;;;;;;;;;;;-144.47;100.00;61586.06;5026477;28;20489;-82
2021/12/29 10:39:52;;;;;;;49.92;36.50;;;;;;;-144.47;100.00;61586.06;5033574;28;19916;-82
2021/12/29 10:42:20;;;;;;;50.00;37.35;;;;;;;-144.47;100.00;61586.06;5034299;28;20397;-83
2021/12/29 10:44:52;;;;;;;51.15;36.83;;;;;;;-144.47;100.00;61586.06;5033747;28;20026;-83
2021/12/29 10:47:27;;;;;;;48.15;35.10;;;;;;;-144.47;100.00;61586.06;5034672;28;20033;-84
2021/12/29 10:50:03;;;;;;;44.83;34.25;;;;;;;-144.47;100.00;61586.06;5023785;28;20025;-83
2021/12/29 10:52:28;;;;;;;46.70;34.38;;;;;;;-144.47;100.00;61586.06;5026179;28;20045;-84
2021/12/29 10:54:54;;;;;;;47.70;35.35;;;;;;;-144.47;100.00;61586.06;5026521;28;20045;-82
2021/12/29 10:57:21;;;;;;;50.10;35.78;;;;;;;-144.47;100.00;61586.06;5004943;28;20033;-84
2021/12/29 10:59:55;;;;;;;50.72;35.92;;;;;;;-144.47;100.00;61586.06;5008345;28;20116;-85
2021/12/29 11:02:35;;;;;;;43.83;32.67;;;;;;;-144.47;100.00;61586.06;5030463;28;20034;-86
2021/12/29 11:05:06;;;;;;;42.63;31.30;;;;;;;-144.47;100.00;61586.06;5034783;28;20041;-83